Time;durP1;ratioP1;P1;durP2;ratioP2;P2;SDS_P1;SDS_P2;PMS_P1;PMS_P2;Temp;Humidity;BMP_temperature;BMP_pressure;BME280_temperature;BME280_humidity;BME280_pressure;Samples;Min_cycle;Max_cycle;Signal;HPM_P1;HPM_P2
2022/07/24 15:22:32;;;;;;;15.68;14.65;;;49.80;27.00;;;38.40;24.18;95593.63;5058099;28;20346;-47
2022/07/24 15:25:05;;;;;;;13.88;12.73;;;49.90;23.60;;;37.48;25.33;95592.41;5053044;28;20040;-47
2022/07/24 15:27:31;;;;;;;17.60;16.20;;;50.70;22.10;;;37.59;24.44;95588.53;5044473;28;20024;-48
2022/07/24 15:30:00;;;;;;;16.15;15.05;;;51.10;20.90;;;37.20;24.73;95585.63;5040430;28;20028;-47
2022/07/24 15:32:35;;;;;;;14.50;13.48;;;51.70;20.00;;;38.01;24.19;95580.16;5042704;28;20388;-47
2022/07/24 15:35:04;;;;;;;16.58;15.43;;;52.40;19.10;;;38.78;23.30;95575.31;5043920;28;20017;-48
2022/07/24 15:37:32;;;;;;;17.30;16.10;;;53.30;18.50;;;39.18;23.48;95571.97;5027321;28;20020;-56
2022/07/24 15:40:00;;;;;;;17.63;16.38;;;54.10;18.00;;;39.39;23.51;95571.19;5061192;28;20028;-51
2022/07/24 15:42:27;;;;;;;19.73;18.33;;;54.80;17.60;;;39.42;23.57;95567.50;5045749;28;20065;-50
2022/07/24 15:44:53;;;;;;;20.92;19.60;;;55.50;17.10;;;39.74;22.61;95568.34;5024496;28;20020;-50
2022/07/24 15:47:19;;;;;;;20.63;19.20;;;56.10;16.70;;;39.90;22.83;95561.78;5044288;28;20038;-47
2022/07/24 15:49:46;;;;;;;21.10;19.73;;;56.60;16.40;;;38.86;23.41;95565.50;5046226;28;20024;-51
2022/07/24 15:52:12;;;;;;;21.77;20.48;;;56.80;16.00;;;38.95;23.18;95554.44;5039669;28;20029;-49
2022/07/24 15:54:37;;;;;;;22.90;21.40;;;56.80;15.70;;;39.35;23.40;95558.66;5044762;28;20039;-56
2022/07/24 15:57:03;;;;;;;20.40;19.05;;;56.80;15.60;;;39.69;23.30;95554.97;5039141;28;20395;-53
2022/07/24 15:59:29;;;;;;;19.13;17.92;;;56.70;15.60;;;39.82;23.24;95550.09;5045880;28;20020;-54
2022/07/24 16:01:58;;;;;;;19.92;18.52;;;56.50;16.10;;;39.83;22.97;95548.09;5046709;28;20527;-53
2022/07/24 16:04:23;;;;;;;17.58;16.38;;;56.30;15.50;;;38.59;24.09;95546.53;5045958;28;20033;-56
2022/07/24 16:06:52;;;;;;;17.67;16.58;;;56.10;15.60;;;38.74;24.05;95536.47;5048190;28;20499;-54
2022/07/24 16:09:18;;;;;;;17.05;15.85;;;55.80;15.50;;;39.32;23.21;95543.63;5037972;28;20057;-52
2022/07/24 16:11:44;;;;;;;17.05;15.95;;;55.60;15.50;;;39.55;23.06;95537.56;5043713;28;20406;-51
2022/07/24 16:14:10;;;;;;;18.20;16.98;;;55.50;15.50;;;39.63;23.08;95529.72;5022851;28;20102;-55
2022/07/24 16:16:37;;;;;;;16.38;14.95;;;55.50;15.50;;;39.50;23.08;95526.25;5050908;28;20539;-50
2022/07/24 16:19:05;;;;;;;15.68;14.57;;;55.40;16.00;;;39.46;23.18;95520.03;5045018;28;20051;-50
2022/07/24 16:21:33;;;;;;;17.48;16.23;;;55.40;15.40;;;38.91;23.85;95520.41;5028646;28;20498;-52
2022/07/24 16:24:00;;;;;;;16.48;15.27;;;55.30;15.40;;;38.41;24.43;95514.53;5045640;28;20024;-56
2022/07/24 16:26:26;;;;;;;16.50;15.38;;;55.20;15.40;;;38.29;24.31;95515.28;5042978;28;20024;-56
2022/07/24 16:28:52;;;;;;;14.38;13.30;;;55.10;15.40;;;37.95;25.43;95518.78;5045663;28;20082;-56
2022/07/24 16:31:21;;;;;;;16.00;14.50;;;54.90;15.50;;;37.58;25.17;95506.44;5043598;28;20048;-56
2022/07/24 16:33:46;;;;;;;16.57;15.53;;;54.90;15.50;;;38.17;24.27;95504.97;5030967;28;20017;-56
2022/07/24 16:36:12;;;;;;;16.25;15.15;;;54.80;15.50;;;37.76;24.80;95498.31;5046955;28;20028;-54
2022/07/24 16:38:41;;;;;;;14.98;13.77;;;54.70;15.40;;;37.20;25.70;95505.13;5047274;28;20036;-54
2022/07/24 16:41:07;;;;;;;13.98;13.07;;;54.50;15.40;;;37.47;25.13;95503.97;5046119;28;20040;-55
2022/07/24 16:43:33;;;;;;;14.85;13.75;;;54.30;15.50;;;38.16;24.09;95500.63;5019774;28;20021;-52
2022/07/24 16:46:02;;;;;;;14.15;13.18;;;54.30;15.40;;;37.78;25.21;95503.44;5022877;28;20483;-48
2022/07/24 16:48:31;;;;;;;15.20;14.02;;;54.30;15.50;;;37.72;25.60;95501.19;5027748;28;20101;-54
2022/07/24 16:50:57;;;;;;;14.75;13.75;;;54.30;15.60;;;38.03;25.35;95506.22;5029142;28;20033;-54
2022/07/24 16:53:23;;;;;;;14.02;13.02;;;54.30;15.60;;;38.12;24.73;95505.56;5027974;28;20117;-55
2022/07/24 16:55:48;;;;;;;13.98;13.05;;;54.40;15.70;;;37.99;24.61;95499.22;5000344;28;20120;-55
2022/07/24 16:58:17;;;;;;;13.50;12.60;;;54.30;15.50;;;37.86;24.87;95499.19;5029349;28;20029;-53
2022/07/24 17:00:43;;;;;;;16.13;14.93;;;54.30;15.50;;;37.77;24.53;95499.09;5020201;28;20037;-53
2022/07/24 17:03:09;;;;;;;12.70;11.75;;;54.20;15.40;;;37.78;25.35;95493.09;5018289;28;20151;-54
2022/07/24 17:05:35;;;;;;;13.32;12.30;;;54.20;15.50;;;37.42;25.24;95494.16;5026596;28;20020;-52
2022/07/24 17:08:04;;;;;;;14.13;12.95;;;54.20;15.60;;;37.45;25.63;95498.88;5020374;28;20546;-53
2022/07/24 17:10:50;;;;;;;12.32;11.18;;;54.10;15.60;;;37.42;25.31;95488.59;5022496;28;20060;-55
2022/07/24 17:13:19;;;;;;;10.65;9.68;;;53.90;15.50;;;36.92;25.74;95484.47;5023516;28;20027;-57
2022/07/24 17:15:48;;;;;;;10.18;9.18;;;53.00;15.60;;;36.03;27.66;95492.31;5027658;28;20024;-55
2022/07/24 17:18:17;;;;;;;10.07;9.10;;;50.80;16.40;;;35.17;28.22;95491.41;5029623;28;20039;-54
2022/07/24 17:20:46;;;;;;;10.05;9.07;;;48.30;17.70;;;34.47;30.12;95490.34;5029991;28;20127;-56
2022/07/24 17:23:12;;;;;;;10.20;9.27;;;46.10;19.10;;;33.93;30.78;95487.66;5036245;28;20284;-53
2022/07/24 17:25:44;;;;;;;9.95;9.05;;;44.10;20.30;;;33.44;32.24;95487.19;5027949;28;20086;-55
2022/07/24 17:28:14;;;;;;;9.65;8.75;;;42.40;21.70;;;32.70;33.06;95492.41;5025643;28;20476;-57
2022/07/24 17:30:44;;;;;;;9.88;8.93;;;41.00;22.60;;;32.30;33.88;95483.69;5025933;28;20032;-52
2022/07/24 17:33:11;;;;;;;10.40;9.32;;;39.70;23.60;;;31.70;34.58;95488.50;5025987;28;20018;-52
2022/07/24 17:35:40;;;;;;;10.02;9.13;;;38.80;24.40;;;31.38;36.17;95488.69;5029104;28;20056;-51
2022/07/24 17:38:10;;;;;;;10.40;9.27;;;37.90;25.40;;;30.84;36.75;95474.38;5030709;28;20484;-54
2022/07/24 17:40:40;;;;;;;9.80;8.57;;;37.10;26.00;;;30.47;37.04;95481.13;5028597;28;20083;-56
2022/07/24 17:43:06;;;;;;;9.10;8.20;;;36.40;26.80;;;30.40;36.95;95472.91;5012620;28;20353;-56
2022/07/24 17:45:35;;;;;;;9.48;8.52;;;35.90;27.30;;;30.26;37.74;95475.66;5029528;28;20047;-56
2022/07/24 17:48:04;;;;;;;9.40;8.50;;;35.40;27.90;;;30.03;38.31;95470.56;5029424;28;20029;-56
2022/07/24 17:50:36;;;;;;;8.82;7.93;;;35.00;28.30;;;29.95;38.62;95472.53;5029814;28;20106;-54
2022/07/24 17:53:06;;;;;;;;;;;34.60;29.00;;;29.60;38.83;95471.31;5029655;28;20505;-56
2022/07/24 17:55:41;;;;;;;8.68;7.55;;;34.30;28.80;;;29.45;39.41;95472.44;5029919;28;19908;-55
2022/07/24 17:58:07;;;;;;;10.40;8.38;;;34.00;29.50;;;29.24;39.97;95473.22;5030109;28;20028;-56
2022/07/24 18:00:32;;;;;;;8.85;8.02;;;33.80;29.90;;;29.19;41.10;95470.84;5045142;28;20074;-52
2022/07/24 18:02:58;;;;;;;9.15;7.85;;;33.50;30.50;;;29.05;40.41;95472.38;5034898;28;20404;-55
2022/07/24 18:05:24;;;;;;;10.30;8.55;;;33.20;31.50;;;28.90;41.09;95476.19;5027778;28;20127;-56
2022/07/24 18:07:50;;;;;;;8.75;7.95;;;33.00;31.30;;;28.65;41.72;95465.13;5026621;28;20062;-52
2022/07/24 18:10:16;;;;;;;12.38;8.98;;;32.90;31.80;;;28.44;41.85;95468.53;4967807;28;25052;-51
2022/07/24 18:12:43;;;;;;;9.50;8.02;;;32.70;32.20;;;28.28;42.24;95462.53;5006952;28;20037;-55
2022/07/24 18:15:16;;;;;;;10.88;8.90;;;32.50;32.60;;;28.23;42.48;95471.09;5002862;28;20108;-52
2022/07/24 18:17:45;;;;;;;10.20;8.30;;;32.30;33.20;;;28.11;43.24;95474.91;5010361;28;20029;-53
2022/07/24 18:20:17;;;;;;;9.73;8.63;;;32.10;33.30;;;28.07;43.19;95472.16;5010431;28;20091;-55
2022/07/24 18:22:43;;;;;;;9.02;8.20;;;32.00;33.90;;;27.90;43.97;95470.88;4993472;28;20568;-54
2022/07/24 18:25:09;;;;;;;11.07;8.90;;;31.80;34.00;;;27.74;44.18;95464.84;5007214;28;20325;-52
2022/07/24 18:27:35;;;;;;;9.40;8.50;;;31.70;34.40;;;27.61;44.63;95464.34;5010851;28;20028;-55
2022/07/24 18:30:02;;;;;;;10.40;8.27;;;31.60;34.70;;;27.53;44.82;95467.38;5009694;28;20018;-51
2022/07/24 18:32:34;;;;;;;9.25;8.13;;;31.40;35.00;;;27.41;45.00;95463.75;4993425;28;20021;-54
2022/07/24 18:35:00;;;;;;;8.60;7.75;;;31.30;35.40;;;27.33;45.07;95458.63;5010649;28;20388;-56
2022/07/24 18:37:26;;;;;;;9.27;8.38;;;31.20;35.50;;;27.24;45.63;95469.06;5002562;28;20033;-54
2022/07/24 18:39:57;;;;;;;9.48;8.05;;;31.00;35.70;;;27.15;46.07;95464.66;5006553;28;20489;-53
2022/07/24 18:42:29;;;;;;;9.63;8.65;;;30.90;36.10;;;27.05;45.64;95465.31;5001317;28;20044;-54
2022/07/24 18:45:05;;;;;;;10.48;7.88;;;30.80;36.40;;;26.92;45.83;95447.56;5017862;28;20048;-56
2022/07/24 18:47:31;;;;;;;9.23;7.65;;;30.60;36.60;;;26.83;46.07;95455.31;4989925;28;20524;-55
2022/07/24 18:49:57;;;;;;;8.70;7.80;;;30.50;36.60;;;26.76;47.46;95456.78;4990479;28;20026;-56
2022/07/24 18:52:26;;;;;;;10.73;8.40;;;30.40;37.30;;;26.56;50.30;95454.56;4990448;28;20460;-55
2022/07/24 18:54:52;;;;;;;14.25;7.85;;;30.30;38.10;;;26.24;51.09;95452.16;4989413;28;20028;-56
2022/07/24 18:57:20;;;;;;;10.57;7.88;;;30.10;38.50;;;25.98;52.29;95448.28;4990500;28;20475;-53
2022/07/24 18:59:46;;;;;;;9.25;8.10;;;29.80;39.20;;;25.69;53.42;95449.72;4973371;28;20108;-51
2022/07/24 19:02:21;;;;;;;11.95;8.93;;;29.60;39.60;;;25.45;53.63;95453.63;4972840;28;20438;-54
2022/07/24 19:04:50;;;;;;;8.50;7.70;;;29.40;40.10;;;25.27;54.04;95457.97;4990712;28;20032;-56
2022/07/24 19:07:16;;;;;;;10.48;8.13;;;29.10;40.50;;;25.03;54.69;95454.38;4999945;28;20505;-55
2022/07/24 19:09:45;;;;;;;11.23;7.18;;;28.90;41.10;;;24.87;55.66;95464.59;5008964;28;20491;-56
2022/07/24 19:12:13;;;;;;;9.05;8.07;;;28.70;41.60;;;24.68;55.84;95452.53;4998216;28;20033;-55
2022/07/24 19:14:44;;;;;;;10.27;8.02;;;28.50;42.00;;;24.53;55.54;95463.50;4990556;28;20033;-53
2022/07/24 19:17:13;;;;;;;11.75;7.93;;;28.30;42.30;;;24.41;56.19;95465.22;4986094;28;20025;-52
2022/07/24 19:19:45;;;;;;;8.65;7.78;;;28.10;42.60;;;24.28;56.42;95471.88;5012048;28;20124;-53
2022/07/24 19:22:17;;;;;;;10.20;8.00;;;27.90;43.00;;;24.18;56.72;95467.78;5009290;28;20053;-54
2022/07/24 19:24:46;;;;;;;11.63;9.05;;;27.80;43.50;;;24.05;57.74;95471.75;5010058;28;20499;-55
2022/07/24 19:27:13;;;;;;;10.57;7.75;;;27.70;43.80;;;23.93;57.97;95463.69;5006955;28;20500;-55
2022/07/24 19:29:39;;;;;;;9.32;8.25;;;27.50;44.00;;;23.82;58.71;95468.09;5008882;28;20071;-52
2022/07/24 19:32:07;;;;;;;9.88;8.18;;;27.40;44.40;;;23.70;58.48;95469.78;4993071;28;20026;-56
2022/07/24 19:34:33;;;;;;;10.40;7.78;;;27.20;44.60;;;23.61;58.45;95474.56;4991440;28;20021;-49
2022/07/24 19:37:00;;;;;;;9.65;7.65;;;27.10;44.80;;;23.52;58.61;95480.16;4985535;28;20026;-54
2022/07/24 19:39:32;;;;;;;10.52;7.57;;;27.00;45.00;;;23.38;59.03;95476.28;4971663;28;20087;-54
2022/07/24 19:42:01;;;;;;;9.15;7.55;;;26.90;45.40;;;23.27;59.17;95479.53;4992614;28;20443;-55
2022/07/24 19:44:29;;;;;;;9.82;7.75;;;26.80;45.50;;;23.20;59.31;95473.91;5004392;28;20413;-53
2022/07/24 19:46:55;;;;;;;11.10;8.23;;;26.80;45.60;;;23.16;59.63;95478.47;5003679;28;20075;-54
2022/07/24 19:49:21;;;;;;;9.00;7.82;;;26.60;45.80;;;23.08;59.64;95485.63;4993300;28;20430;-54
2022/07/24 19:51:48;;;;;;;9.63;7.55;;;26.60;46.10;;;23.03;59.69;95482.34;4989231;28;20034;-53
2022/07/24 19:54:14;;;;;;;10.77;8.27;;;26.50;46.20;;;23.00;60.10;95477.63;5000135;28;20194;-56
2022/07/24 19:56:43;;;;;;;11.63;8.35;;;26.40;46.40;;;22.94;60.56;95485.25;5008040;28;20459;-54
2022/07/24 19:59:09;;;;;;;10.20;8.10;;;26.40;46.70;;;22.89;60.22;95490.09;4996583;28;20032;-53
2022/07/24 20:01:35;;;;;;;8.88;7.90;;;26.30;46.80;;;22.85;60.23;95487.28;4989457;28;20030;-52
2022/07/24 20:04:01;;;;;;;10.27;7.63;;;26.20;46.90;;;22.77;61.14;95485.50;4989193;28;20030;-53
2022/07/24 20:06:31;;;;;;;12.85;8.93;;;26.20;47.10;;;22.69;62.38;95484.50;4989498;28;20177;-56
2022/07/24 20:08:57;;;;;;;8.50;7.47;;;26.10;47.60;;;22.58;61.87;95484.19;4975185;28;20029;-54
2022/07/24 20:11:23;;;;;;;9.77;7.82;;;26.00;47.50;;;22.52;62.33;95487.50;4999155;28;20064;-50
2022/07/24 20:13:50;;;;;;;9.57;8.18;;;26.00;47.70;;;22.48;62.34;95486.59;4994885;28;20021;-51
2022/07/24 20:16:19;;;;;;;10.63;8.02;;;25.90;47.90;;;22.46;62.35;95486.16;4991823;28;20026;-55
2022/07/24 20:18:48;;;;;;;11.25;8.60;;;25.90;48.30;;;22.39;62.72;95479.38;5001096;28;20026;-53
2022/07/24 20:21:14;;;;;;;11.40;8.70;;;25.80;48.40;;;22.33;63.20;95486.16;4991480;28;20041;-49
2022/07/24 20:23:42;;;;;;;10.50;9.10;;;25.70;48.40;;;22.26;63.68;95477.03;4999586;28;20028;-54
2022/07/24 20:26:11;;;;;;;10.07;8.05;;;25.70;48.90;;;22.23;63.48;95485.84;4992066;28;20029;-55
2022/07/24 20:28:37;;;;;;;9.57;8.60;;;25.60;48.90;;;22.16;63.32;95479.09;4992672;28;20025;-54
2022/07/24 20:31:04;;;;;;;9.80;8.05;;;25.60;49.00;;;22.15;63.85;95487.50;4992584;28;20044;-53
2022/07/24 20:33:30;;;;;;;11.50;8.52;;;25.50;49.20;;;22.08;63.95;95488.09;5004460;28;20032;-49
2022/07/24 20:35:57;;;;;;;11.90;9.52;;;25.50;49.30;;;22.03;64.28;95482.91;5010598;28;20040;-51
2022/07/24 20:38:24;;;;;;;10.57;8.23;;;25.40;49.40;;;22.05;63.93;95482.56;5001496;28;20030;-51
2022/07/24 20:40:50;;;;;;;11.02;8.82;;;25.40;49.60;;;22.04;63.93;95479.06;4992070;28;20048;-55
2022/07/24 20:43:16;;;;;;;10.32;8.77;;;25.40;49.70;;;21.96;64.62;95482.66;4992481;28;20036;-52
2022/07/24 20:45:42;;;;;;;12.88;8.55;;;25.30;49.80;;;21.93;64.69;95486.06;5008309;28;20029;-49
2022/07/24 20:48:08;;;;;;;9.82;8.25;;;25.30;49.90;;;21.91;64.39;95488.34;5009852;28;20044;-54
2022/07/24 20:50:34;;;;;;;9.85;8.40;;;25.30;50.00;;;21.88;64.58;95484.38;5006076;28;20018;-53
2022/07/24 20:53:03;;;;;;;11.38;9.40;;;25.30;50.10;;;21.89;64.90;95487.88;4958360;28;20385;-55
2022/07/24 20:55:31;;;;;;;9.85;8.85;;;25.20;50.20;;;21.85;64.68;95482.34;5009768;28;20036;-52
2022/07/24 20:58:03;;;;;;;10.70;8.50;;;25.20;50.40;;;21.80;65.12;95482.56;4998823;28;20037;-55
2022/07/24 21:00:30;;;;;;;9.18;8.15;;;25.20;50.60;;;21.77;65.12;95482.44;4975049;28;20416;-54
2022/07/24 21:02:59;;;;;;;13.00;9.27;;;25.10;50.40;;;21.74;65.30;95477.72;4993333;28;20033;-54
2022/07/24 21:05:25;;;;;;;11.57;8.45;;;25.10;50.70;;;21.71;65.39;95476.47;4992045;28;20026;-54
2022/07/24 21:07:54;;;;;;;9.68;7.85;;;25.10;50.70;;;21.68;65.40;95477.91;4959718;28;20041;-55
2022/07/24 21:10:20;;;;;;;10.23;8.60;;;25.10;51.00;;;21.65;65.47;95483.22;4993040;28;20112;-50
2022/07/24 21:12:46;;;;;;;10.48;8.55;;;25.00;50.90;;;21.61;65.37;95476.91;4993216;28;20109;-54
2022/07/24 21:15:14;;;;;;;9.70;8.70;;;25.00;50.90;;;21.59;65.43;95477.25;4993174;28;20384;-54
2022/07/24 21:17:40;;;;;;;11.65;8.80;;;25.00;51.00;;;21.57;65.30;95479.50;5011358;28;20033;-53
2022/07/24 21:20:07;;;;;;;9.95;8.75;;;25.00;51.10;;;21.55;65.42;95481.75;4997802;28;20037;-54
2022/07/24 21:22:33;;;;;;;10.80;8.65;;;24.90;51.20;;;21.55;65.67;95486.38;5027693;28;20440;-54
2022/07/24 21:25:05;;;;;;;14.70;9.43;;;24.90;51.20;;;21.52;65.96;95487.84;5010484;28;20116;-52
2022/07/24 21:27:34;;;;;;;11.52;8.73;;;24.90;51.50;;;21.48;65.77;95487.72;5012676;28;20116;-55
2022/07/24 21:30:03;;;;;;;11.25;8.35;;;24.90;51.40;;;21.46;65.73;95487.25;4994208;28;20054;-53
2022/07/24 21:32:32;;;;;;;11.68;8.20;;;24.90;51.60;;;21.41;66.59;95487.50;5003864;28;20388;-53
2022/07/24 21:35:00;;;;;;;10.75;9.32;;;24.80;51.60;;;21.37;67.10;95488.50;5010272;28;20045;-55
2022/07/24 21:37:26;;;;;;;10.95;9.43;;;24.80;52.40;;;21.30;67.54;95489.00;4999206;28;20022;-53
2022/07/24 21:39:55;;;;;;;10.88;8.68;;;24.70;52.00;;;21.23;68.39;95491.47;4991233;28;20370;-51
2022/07/24 21:42:21;;;;;;;9.55;8.60;;;24.70;52.30;;;21.18;68.85;95491.69;5003294;28;20029;-55
2022/07/24 21:44:50;;;;;;;15.35;8.75;;;24.70;52.40;;;21.13;69.19;95491.91;5026787;28;20471;-51
2022/07/24 21:47:18;;;;;;;12.10;9.10;;;24.60;52.50;;;21.07;70.06;95491.31;5027249;28;20117;-52
2022/07/24 21:49:46;;;;;;;13.43;8.93;;;24.60;52.80;;;21.01;70.26;95490.75;5006529;28;20420;-55
2022/07/24 21:52:21;;;;;;;11.52;9.38;;;24.50;53.00;;;20.90;71.50;95486.88;4992299;28;20120;-54
2022/07/24 21:54:47;;;;;;;10.70;9.13;;;24.40;53.40;;;20.87;71.21;95484.84;4997368;28;20108;-47
2022/07/24 21:57:15;;;;;;;11.68;10.13;;;24.40;53.40;;;20.79;71.88;95480.28;5011788;28;20104;-45
2022/07/24 21:59:44;;;;;;;11.55;8.65;;;24.30;53.80;;;20.72;72.34;95480.03;4981669;28;20094;-45
2022/07/24 22:02:12;;;;;;;10.60;9.50;;;24.20;53.80;;;20.67;72.67;95477.50;4997140;28;20036;-49
2022/07/24 22:04:40;;;;;;;10.20;9.10;;;24.20;54.30;;;20.61;73.00;95476.13;5002955;28;20026;-44
2022/07/24 22:07:08;;;;;;;11.80;9.25;;;24.10;54.30;;;20.46;74.19;95478.28;5005750;28;20040;-49
2022/07/24 22:09:45;;;;;;;10.23;9.02;;;24.00;54.70;;;20.46;74.19;95475.56;5003235;28;20488;-46
2022/07/24 22:12:10;;;;;;;14.02;11.15;;;23.90;55.10;;;20.43;74.64;95476.25;5009306;28;20033;-45
2022/07/24 22:14:36;;;;;;;14.23;9.63;;;23.90;55.20;;;20.41;74.78;95473.06;4999117;28;20392;-47
2022/07/24 22:17:04;;;;;;;11.10;9.98;;;23.90;55.40;;;20.38;75.07;95472.94;4996291;28;20421;-46
2022/07/24 22:19:30;;;;;;;14.05;10.57;;;23.80;55.70;;;20.34;75.45;95475.53;4992127;28;20400;-45
2022/07/24 22:21:56;;;;;;;11.20;9.95;;;23.80;55.90;;;20.30;75.72;95469.97;5003494;28;20155;-44
2022/07/24 22:24:28;;;;;;;12.52;10.07;;;23.80;56.00;;;20.28;75.92;95474.13;4991491;28;20030;-44
2022/07/24 22:26:57;;;;;;;11.30;10.15;;;23.70;56.20;;;20.25;75.73;95472.09;5003560;28;20029;-46
2022/07/24 22:29:23;;;;;;;11.35;10.15;;;23.70;56.40;;;20.21;75.70;95474.66;5004344;28;20033;-49
2022/07/24 22:31:49;;;;;;;13.40;9.88;;;23.70;56.50;;;20.14;75.83;95468.97;4993917;28;20026;-51
2022/07/24 22:34:21;;;;;;;11.75;9.50;;;23.60;56.50;;;20.09;76.13;95466.47;4990036;28;20403;-45
